sensor_id;sensor_type;location;lat;lon;timestamp;P1;durP1;ratioP1;P2;durP2;ratioP2
64459;SDS011;50828;53.756;21.140;2023-03-02T00:05:23;8.20;;;5.30;;
64459;SDS011;50828;53.756;21.140;2023-03-02T00:10:32;9.50;;;4.90;;
64459;SDS011;50828;53.756;21.140;2023-03-02T00:15:41;7.00;;;4.70;;
64459;SDS011;50828;53.756;21.140;2023-03-02T00:20:50;10.30;;;5.50;;
64459;SDS011;50828;53.756;21.140;2023-03-02T00:25:59;12.60;;;6.20;;
64459;SDS011;50828;53.756;21.140;2023-03-02T00:31:07;15.00;;;6.40;;
64459;SDS011;50828;53.756;21.140;2023-03-02T00:36:16;17.20;;;7.30;;
64459;SDS011;50828;53.756;21.140;2023-03-02T00:41:26;18.50;;;6.30;;
64459;SDS011;50828;53.756;21.140;2023-03-02T00:46:35;17.10;;;6.50;;
64459;SDS011;50828;53.756;21.140;2023-03-02T00:51:43;17.30;;;6.10;;
64459;SDS011;50828;53.756;21.140;2023-03-02T00:56:52;11.20;;;4.60;;
64459;SDS011;50828;53.756;21.140;2023-03-02T01:02:00;12.00;;;4.90;;
64459;SDS011;50828;53.756;21.140;2023-03-02T01:07:08;9.90;;;4.50;;
64459;SDS011;50828;53.756;21.140;2023-03-02T01:12:18;11.80;;;4.10;;
64459;SDS011;50828;53.756;21.140;2023-03-02T01:17:26;9.80;;;4.40;;
64459;SDS011;50828;53.756;21.140;2023-03-02T01:22:34;11.10;;;4.40;;
64459;SDS011;50828;53.756;21.140;2023-03-02T01:27:43;10.00;;;4.00;;
64459;SDS011;50828;53.756;21.140;2023-03-02T01:32:51;11.10;;;4.30;;
64459;SDS011;50828;53.756;21.140;2023-03-02T01:37:58;14.00;;;5.70;;
64459;SDS011;50828;53.756;21.140;2023-03-02T01:43:09;12.80;;;5.10;;
64459;SDS011;50828;53.756;21.140;2023-03-02T01:48:19;14.00;;;5.70;;
64459;SDS011;50828;53.756;21.140;2023-03-02T01:53:32;9.40;;;4.50;;
64459;SDS011;50828;53.756;21.140;2023-03-02T01:58:42;8.80;;;4.10;;
64459;SDS011;50828;53.756;21.140;2023-03-02T02:03:53;8.90;;;3.50;;
64459;SDS011;50828;53.756;21.140;2023-03-02T02:09:01;8.40;;;3.30;;
64459;SDS011;50828;53.756;21.140;2023-03-02T02:14:11;8.90;;;3.00;;
64459;SDS011;50828;53.756;21.140;2023-03-02T02:19:23;8.40;;;3.10;;
64459;SDS011;50828;53.756;21.140;2023-03-02T02:24:41;7.20;;;3.00;;
64459;SDS011;50828;53.756;21.140;2023-03-02T02:29:50;4.40;;;2.20;;
64459;SDS011;50828;53.756;21.140;2023-03-02T02:35:03;5.90;;;2.20;;
64459;SDS011;50828;53.756;21.140;2023-03-02T02:40:19;4.80;;;2.30;;
64459;SDS011;50828;53.756;21.140;2023-03-02T02:45:29;12.40;;;2.80;;
64459;SDS011;50828;53.756;21.140;2023-03-02T02:50:38;7.80;;;2.30;;
64459;SDS011;50828;53.756;21.140;2023-03-02T02:55:47;5.70;;;2.80;;
64459;SDS011;50828;53.756;21.140;2023-03-02T03:00:59;5.90;;;2.40;;
64459;SDS011;50828;53.756;21.140;2023-03-02T03:06:12;7.80;;;2.40;;
64459;SDS011;50828;53.756;21.140;2023-03-02T03:11:27;9.30;;;2.70;;
64459;SDS011;50828;53.756;21.140;2023-03-02T03:16:38;8.20;;;2.60;;
64459;SDS011;50828;53.756;21.140;2023-03-02T03:21:48;7.50;;;2.40;;
64459;SDS011;50828;53.756;21.140;2023-03-02T03:26:58;5.40;;;2.40;;
64459;SDS011;50828;53.756;21.140;2023-03-02T03:32:10;4.80;;;2.10;;
64459;SDS011;50828;53.756;21.140;2023-03-02T03:37:19;8.10;;;2.30;;
64459;SDS011;50828;53.756;21.140;2023-03-02T03:42:27;7.90;;;2.00;;
64459;SDS011;50828;53.756;21.140;2023-03-02T03:47:36;6.80;;;2.20;;
64459;SDS011;50828;53.756;21.140;2023-03-02T03:52:46;5.80;;;2.10;;
64459;SDS011;50828;53.756;21.140;2023-03-02T03:57:59;3.70;;;1.90;;
64459;SDS011;50828;53.756;21.140;2023-03-02T04:03:07;6.30;;;2.10;;
64459;SDS011;50828;53.756;21.140;2023-03-02T04:08:16;5.40;;;1.80;;
64459;SDS011;50828;53.756;21.140;2023-03-02T04:13:25;5.50;;;1.90;;
64459;SDS011;50828;53.756;21.140;2023-03-02T04:18:33;8.20;;;2.20;;
64459;SDS011;50828;53.756;21.140;2023-03-02T04:23:41;7.10;;;2.10;;
64459;SDS011;50828;53.756;21.140;2023-03-02T04:28:48;4.00;;;1.80;;
64459;SDS011;50828;53.756;21.140;2023-03-02T04:33:58;5.10;;;1.40;;
64459;SDS011;50828;53.756;21.140;2023-03-02T04:39:09;5.40;;;2.00;;
64459;SDS011;50828;53.756;21.140;2023-03-02T04:49:27;7.10;;;1.90;;
64459;SDS011;50828;53.756;21.140;2023-03-02T04:54:35;6.00;;;2.00;;
64459;SDS011;50828;53.756;21.140;2023-03-02T04:59:44;7.60;;;2.80;;
64459;SDS011;50828;53.756;21.140;2023-03-02T05:04:52;10.30;;;3.80;;
64459;SDS011;50828;53.756;21.140;2023-03-02T05:10:01;5.30;;;1.90;;
64459;SDS011;50828;53.756;21.140;2023-03-02T05:15:09;7.30;;;2.30;;
64459;SDS011;50828;53.756;21.140;2023-03-02T05:20:18;3.20;;;2.10;;
64459;SDS011;50828;53.756;21.140;2023-03-02T05:25:32;6.90;;;1.80;;
64459;SDS011;50828;53.756;21.140;2023-03-02T05:30:41;5.50;;;1.60;;
64459;SDS011;50828;53.756;21.140;2023-03-02T05:35:49;6.40;;;1.40;;
64459;SDS011;50828;53.756;21.140;2023-03-02T05:40:58;5.40;;;1.30;;
64459;SDS011;50828;53.756;21.140;2023-03-02T05:46:06;2.40;;;1.10;;
64459;SDS011;50828;53.756;21.140;2023-03-02T05:51:14;7.00;;;1.40;;
64459;SDS011;50828;53.756;21.140;2023-03-02T05:56:22;3.70;;;1.30;;
64459;SDS011;50828;53.756;21.140;2023-03-02T06:01:29;4.00;;;1.20;;
64459;SDS011;50828;53.756;21.140;2023-03-02T06:06:38;5.60;;;1.70;;
64459;SDS011;50828;53.756;21.140;2023-03-02T06:11:46;6.50;;;1.50;;
64459;SDS011;50828;53.756;21.140;2023-03-02T06:16:55;10.10;;;2.00;;
64459;SDS011;50828;53.756;21.140;2023-03-02T06:22:04;8.50;;;2.90;;
64459;SDS011;50828;53.756;21.140;2023-03-02T06:27:13;14.00;;;2.90;;
64459;SDS011;50828;53.756;21.140;2023-03-02T06:32:21;6.70;;;2.30;;
64459;SDS011;50828;53.756;21.140;2023-03-02T06:37:30;10.40;;;2.40;;
64459;SDS011;50828;53.756;21.140;2023-03-02T06:42:39;4.90;;;2.30;;
64459;SDS011;50828;53.756;21.140;2023-03-02T06:47:48;8.20;;;2.70;;
64459;SDS011;50828;53.756;21.140;2023-03-02T06:52:56;7.30;;;2.20;;
64459;SDS011;50828;53.756;21.140;2023-03-02T06:58:04;6.30;;;1.90;;
64459;SDS011;50828;53.756;21.140;2023-03-02T07:03:16;4.50;;;2.00;;
64459;SDS011;50828;53.756;21.140;2023-03-02T07:08:25;4.90;;;1.90;;
64459;SDS011;50828;53.756;21.140;2023-03-02T07:13:33;6.50;;;2.20;;
64459;SDS011;50828;53.756;21.140;2023-03-02T07:18:43;9.00;;;2.70;;
64459;SDS011;50828;53.756;21.140;2023-03-02T07:23:51;6.70;;;2.30;;
64459;SDS011;50828;53.756;21.140;2023-03-02T07:28:58;10.50;;;3.30;;
64459;SDS011;50828;53.756;21.140;2023-03-02T07:34:07;8.50;;;2.80;;
64459;SDS011;50828;53.756;21.140;2023-03-02T07:39:15;8.40;;;3.00;;
64459;SDS011;50828;53.756;21.140;2023-03-02T07:44:24;4.50;;;2.50;;
64459;SDS011;50828;53.756;21.140;2023-03-02T07:49:32;7.30;;;2.70;;
64459;SDS011;50828;53.756;21.140;2023-03-02T07:54:40;5.90;;;2.30;;
64459;SDS011;50828;53.756;21.140;2023-03-02T07:59:47;5.90;;;2.60;;
64459;SDS011;50828;53.756;21.140;2023-03-02T08:04:56;11.60;;;3.20;;
64459;SDS011;50828;53.756;21.140;2023-03-02T08:10:05;6.80;;;3.20;;
64459;SDS011;50828;53.756;21.140;2023-03-02T08:15:15;9.30;;;3.40;;
64459;SDS011;50828;53.756;21.140;2023-03-02T08:20:23;7.40;;;2.80;;
64459;SDS011;50828;53.756;21.140;2023-03-02T08:25:31;6.70;;;3.30;;
64459;SDS011;50828;53.756;21.140;2023-03-02T08:30:42;9.50;;;3.60;;
64459;SDS011;50828;53.756;21.140;2023-03-02T08:35:55;9.60;;;2.70;;
64459;SDS011;50828;53.756;21.140;2023-03-02T08:41:05;8.10;;;3.00;;
64459;SDS011;50828;53.756;21.140;2023-03-02T08:46:16;9.20;;;2.80;;
64459;SDS011;50828;53.756;21.140;2023-03-02T08:51:25;4.90;;;2.30;;
64459;SDS011;50828;53.756;21.140;2023-03-02T08:56:35;6.00;;;2.40;;
64459;SDS011;50828;53.756;21.140;2023-03-02T09:01:44;6.90;;;2.50;;
64459;SDS011;50828;53.756;21.140;2023-03-02T09:06:53;8.80;;;3.00;;
64459;SDS011;50828;53.756;21.140;2023-03-02T09:12:02;6.60;;;2.30;;
64459;SDS011;50828;53.756;21.140;2023-03-02T09:17:11;6.70;;;2.90;;
64459;SDS011;50828;53.756;21.140;2023-03-02T09:22:21;8.30;;;2.90;;
64459;SDS011;50828;53.756;21.140;2023-03-02T09:27:29;6.80;;;2.80;;
64459;SDS011;50828;53.756;21.140;2023-03-02T09:32:38;7.30;;;2.80;;
64459;SDS011;50828;53.756;21.140;2023-03-02T09:37:47;9.10;;;3.70;;
64459;SDS011;50828;53.756;21.140;2023-03-02T09:43:02;9.40;;;4.20;;
64459;SDS011;50828;53.756;21.140;2023-03-02T09:48:22;10.10;;;4.10;;
64459;SDS011;50828;53.756;21.140;2023-03-02T09:53:42;7.00;;;3.40;;
64459;SDS011;50828;53.756;21.140;2023-03-02T09:58:59;9.10;;;4.00;;
64459;SDS011;50828;53.756;21.140;2023-03-02T10:04:16;12.60;;;3.60;;
64459;SDS011;50828;53.756;21.140;2023-03-02T10:09:29;7.30;;;3.60;;
64459;SDS011;50828;53.756;21.140;2023-03-02T10:14:38;9.20;;;3.90;;
64459;SDS011;50828;53.756;21.140;2023-03-02T10:19:51;7.50;;;4.00;;
64459;SDS011;50828;53.756;21.140;2023-03-02T10:25:07;8.40;;;3.80;;
64459;SDS011;50828;53.756;21.140;2023-03-02T10:30:24;6.80;;;3.40;;
64459;SDS011;50828;53.756;21.140;2023-03-02T10:35:36;7.80;;;4.10;;
64459;SDS011;50828;53.756;21.140;2023-03-02T10:40:52;12.10;;;4.00;;
64459;SDS011;50828;53.756;21.140;2023-03-02T10:46:05;9.50;;;3.30;;
64459;SDS011;50828;53.756;21.140;2023-03-02T10:51:20;7.90;;;3.60;;
64459;SDS011;50828;53.756;21.140;2023-03-02T10:56:32;6.10;;;3.30;;
64459;SDS011;50828;53.756;21.140;2023-03-02T11:01:40;6.00;;;2.90;;
64459;SDS011;50828;53.756;21.140;2023-03-02T11:06:49;5.30;;;2.60;;
64459;SDS011;50828;53.756;21.140;2023-03-02T11:11:58;7.40;;;3.00;;
64459;SDS011;50828;53.756;21.140;2023-03-02T11:17:20;6.80;;;3.40;;
64459;SDS011;50828;53.756;21.140;2023-03-02T11:22:37;11.30;;;4.30;;
64459;SDS011;50828;53.756;21.140;2023-03-02T11:27:54;9.50;;;4.10;;
64459;SDS011;50828;53.756;21.140;2023-03-02T11:33:08;7.70;;;4.00;;
64459;SDS011;50828;53.756;21.140;2023-03-02T11:38:22;9.00;;;3.70;;
64459;SDS011;50828;53.756;21.140;2023-03-02T11:43:32;8.40;;;2.80;;
64459;SDS011;50828;53.756;21.140;2023-03-02T11:48:41;6.20;;;3.10;;
64459;SDS011;50828;53.756;21.140;2023-03-02T11:53:52;6.90;;;3.00;;
64459;SDS011;50828;53.756;21.140;2023-03-02T11:59:03;9.50;;;3.60;;
64459;SDS011;50828;53.756;21.140;2023-03-02T12:04:26;7.50;;;3.00;;
64459;SDS011;50828;53.756;21.140;2023-03-02T12:09:37;6.00;;;2.90;;
64459;SDS011;50828;53.756;21.140;2023-03-02T12:14:46;3.70;;;2.10;;
64459;SDS011;50828;53.756;21.140;2023-03-02T12:20:05;5.70;;;2.20;;
64459;SDS011;50828;53.756;21.140;2023-03-02T12:25:35;10.70;;;2.80;;
64459;SDS011;50828;53.756;21.140;2023-03-02T12:31:02;5.10;;;2.50;;
64459;SDS011;50828;53.756;21.140;2023-03-02T12:36:16;6.60;;;2.50;;
64459;SDS011;50828;53.756;21.140;2023-03-02T12:41:36;5.20;;;2.00;;
64459;SDS011;50828;53.756;21.140;2023-03-02T12:46:53;8.10;;;3.80;;
64459;SDS011;50828;53.756;21.140;2023-03-02T12:52:18;8.70;;;3.30;;
64459;SDS011;50828;53.756;21.140;2023-03-02T12:57:36;10.30;;;4.70;;
64459;SDS011;50828;53.756;21.140;2023-03-02T13:02:54;8.70;;;4.80;;
64459;SDS011;50828;53.756;21.140;2023-03-02T13:08:03;10.70;;;5.00;;
64459;SDS011;50828;53.756;21.140;2023-03-02T13:13:15;11.70;;;5.70;;
64459;SDS011;50828;53.756;21.140;2023-03-02T13:18:27;11.80;;;5.10;;
64459;SDS011;50828;53.756;21.140;2023-03-02T13:23:43;10.70;;;5.40;;
64459;SDS011;50828;53.756;21.140;2023-03-02T13:29:00;9.30;;;4.70;;
64459;SDS011;50828;53.756;21.140;2023-03-02T13:34:16;10.60;;;4.20;;
64459;SDS011;50828;53.756;21.140;2023-03-02T13:39:34;9.10;;;4.40;;
64459;SDS011;50828;53.756;21.140;2023-03-02T13:44:45;10.70;;;3.60;;
64459;SDS011;50828;53.756;21.140;2023-03-02T13:50:04;10.30;;;4.40;;
64459;SDS011;50828;53.756;21.140;2023-03-02T13:55:15;11.20;;;5.40;;
64459;SDS011;50828;53.756;21.140;2023-03-02T14:00:25;12.60;;;6.60;;
64459;SDS011;50828;53.756;21.140;2023-03-02T14:05:35;12.30;;;6.30;;
64459;SDS011;50828;53.756;21.140;2023-03-02T14:10:44;16.60;;;6.80;;
64459;SDS011;50828;53.756;21.140;2023-03-02T14:15:52;14.70;;;6.60;;
64459;SDS011;50828;53.756;21.140;2023-03-02T14:21:01;14.70;;;8.00;;
64459;SDS011;50828;53.756;21.140;2023-03-02T14:26:24;207.40;;;62.50;;
64459;SDS011;50828;53.756;21.140;2023-03-02T14:31:36;120.10;;;36.10;;
64459;SDS011;50828;53.756;21.140;2023-03-02T14:36:45;49.40;;;16.10;;
64459;SDS011;50828;53.756;21.140;2023-03-02T14:41:56;38.00;;;11.80;;
64459;SDS011;50828;53.756;21.140;2023-03-02T14:47:05;32.40;;;10.10;;
64459;SDS011;50828;53.756;21.140;2023-03-02T14:52:15;235.30;;;48.50;;
64459;SDS011;50828;53.756;21.140;2023-03-02T14:57:29;290.30;;;61.20;;
64459;SDS011;50828;53.756;21.140;2023-03-02T15:02:41;511.40;;;123.10;;
64459;SDS011;50828;53.756;21.140;2023-03-02T15:07:50;705.00;;;169.00;;
64459;SDS011;50828;53.756;21.140;2023-03-02T15:13:02;609.20;;;140.10;;
64459;SDS011;50828;53.756;21.140;2023-03-02T15:18:12;324.30;;;69.70;;
64459;SDS011;50828;53.756;21.140;2023-03-02T15:23:23;97.60;;;25.50;;
64459;SDS011;50828;53.756;21.140;2023-03-02T15:28:32;45.10;;;12.20;;
64459;SDS011;50828;53.756;21.140;2023-03-02T15:33:41;22.30;;;7.60;;
64459;SDS011;50828;53.756;21.140;2023-03-02T15:38:51;13.80;;;6.00;;
64459;SDS011;50828;53.756;21.140;2023-03-02T15:44:00;11.70;;;5.10;;
64459;SDS011;50828;53.756;21.140;2023-03-02T15:49:10;16.70;;;4.60;;
64459;SDS011;50828;53.756;21.140;2023-03-02T15:54:19;10.40;;;4.30;;
64459;SDS011;50828;53.756;21.140;2023-03-02T15:59:28;9.30;;;4.00;;
64459;SDS011;50828;53.756;21.140;2023-03-02T16:04:38;11.00;;;4.70;;
64459;SDS011;50828;53.756;21.140;2023-03-02T16:09:47;7.20;;;3.60;;
64459;SDS011;50828;53.756;21.140;2023-03-02T16:14:56;8.70;;;3.80;;
64459;SDS011;50828;53.756;21.140;2023-03-02T16:20:05;10.70;;;4.20;;
64459;SDS011;50828;53.756;21.140;2023-03-02T16:25:15;7.20;;;3.80;;
64459;SDS011;50828;53.756;21.140;2023-03-02T16:30:23;8.90;;;4.00;;
64459;SDS011;50828;53.756;21.140;2023-03-02T16:35:30;8.10;;;4.10;;
64459;SDS011;50828;53.756;21.140;2023-03-02T16:40:39;9.40;;;4.50;;
64459;SDS011;50828;53.756;21.140;2023-03-02T16:45:47;7.60;;;3.90;;
64459;SDS011;50828;53.756;21.140;2023-03-02T16:50:55;10.30;;;4.60;;
64459;SDS011;50828;53.756;21.140;2023-03-02T16:56:04;9.80;;;4.20;;
64459;SDS011;50828;53.756;21.140;2023-03-02T17:01:14;9.00;;;3.80;;
64459;SDS011;50828;53.756;21.140;2023-03-02T17:06:24;9.00;;;3.80;;
64459;SDS011;50828;53.756;21.140;2023-03-02T17:11:32;6.50;;;3.80;;
64459;SDS011;50828;53.756;21.140;2023-03-02T17:16:41;7.90;;;4.10;;
64459;SDS011;50828;53.756;21.140;2023-03-02T17:21:50;9.30;;;4.10;;
64459;SDS011;50828;53.756;21.140;2023-03-02T17:27:02;6.70;;;3.90;;
64459;SDS011;50828;53.756;21.140;2023-03-02T17:32:29;12.50;;;4.40;;
64459;SDS011;50828;53.756;21.140;2023-03-02T17:37:38;9.20;;;4.40;;
64459;SDS011;50828;53.756;21.140;2023-03-02T17:42:46;8.40;;;3.80;;
64459;SDS011;50828;53.756;21.140;2023-03-02T17:47:59;11.20;;;4.40;;
64459;SDS011;50828;53.756;21.140;2023-03-02T17:53:07;9.00;;;4.40;;
64459;SDS011;50828;53.756;21.140;2023-03-02T17:58:15;7.70;;;4.50;;
64459;SDS011;50828;53.756;21.140;2023-03-02T18:03:25;9.30;;;4.80;;
64459;SDS011;50828;53.756;21.140;2023-03-02T18:08:32;13.50;;;5.80;;
64459;SDS011;50828;53.756;21.140;2023-03-02T18:13:41;10.50;;;5.10;;
64459;SDS011;50828;53.756;21.140;2023-03-02T18:18:49;13.00;;;6.00;;
64459;SDS011;50828;53.756;21.140;2023-03-02T18:23:58;14.10;;;6.20;;
64459;SDS011;50828;53.756;21.140;2023-03-02T18:29:06;11.90;;;4.80;;
64459;SDS011;50828;53.756;21.140;2023-03-02T18:34:15;8.70;;;4.40;;
64459;SDS011;50828;53.756;21.140;2023-03-02T18:39:23;11.30;;;5.50;;
64459;SDS011;50828;53.756;21.140;2023-03-02T18:44:31;12.00;;;5.60;;
64459;SDS011;50828;53.756;21.140;2023-03-02T18:49:40;12.60;;;6.00;;
64459;SDS011;50828;53.756;21.140;2023-03-02T18:54:48;14.70;;;6.30;;
64459;SDS011;50828;53.756;21.140;2023-03-02T19:00:00;12.10;;;5.50;;
64459;SDS011;50828;53.756;21.140;2023-03-02T19:05:09;13.80;;;5.20;;
64459;SDS011;50828;53.756;21.140;2023-03-02T19:10:18;11.20;;;5.40;;
64459;SDS011;50828;53.756;21.140;2023-03-02T19:15:27;11.00;;;5.40;;
64459;SDS011;50828;53.756;21.140;2023-03-02T19:20:36;12.20;;;4.90;;
64459;SDS011;50828;53.756;21.140;2023-03-02T19:25:45;10.70;;;5.00;;
64459;SDS011;50828;53.756;21.140;2023-03-02T19:30:55;13.60;;;5.30;;
64459;SDS011;50828;53.756;21.140;2023-03-02T19:36:08;16.50;;;5.80;;
64459;SDS011;50828;53.756;21.140;2023-03-02T19:41:18;11.40;;;5.60;;
64459;SDS011;50828;53.756;21.140;2023-03-02T19:46:26;14.00;;;6.00;;
64459;SDS011;50828;53.756;21.140;2023-03-02T19:51:35;12.00;;;5.70;;
64459;SDS011;50828;53.756;21.140;2023-03-02T19:56:44;13.20;;;5.70;;
64459;SDS011;50828;53.756;21.140;2023-03-02T20:01:57;17.80;;;6.40;;
64459;SDS011;50828;53.756;21.140;2023-03-02T20:07:06;13.30;;;6.00;;
64459;SDS011;50828;53.756;21.140;2023-03-02T20:12:15;13.90;;;6.10;;
64459;SDS011;50828;53.756;21.140;2023-03-02T20:17:23;13.60;;;6.30;;
64459;SDS011;50828;53.756;21.140;2023-03-02T20:22:31;15.30;;;7.10;;
64459;SDS011;50828;53.756;21.140;2023-03-02T20:27:40;17.90;;;7.70;;
64459;SDS011;50828;53.756;21.140;2023-03-02T20:32:49;18.60;;;8.30;;
64459;SDS011;50828;53.756;21.140;2023-03-02T20:37:58;18.40;;;7.80;;
64459;SDS011;50828;53.756;21.140;2023-03-02T20:43:08;21.50;;;8.90;;
64459;SDS011;50828;53.756;21.140;2023-03-02T20:48:16;23.10;;;10.10;;
64459;SDS011;50828;53.756;21.140;2023-03-02T20:53:26;19.40;;;9.00;;
64459;SDS011;50828;53.756;21.140;2023-03-02T20:58:34;18.30;;;9.40;;
64459;SDS011;50828;53.756;21.140;2023-03-02T21:03:45;15.70;;;7.90;;
64459;SDS011;50828;53.756;21.140;2023-03-02T21:08:53;15.80;;;7.00;;
64459;SDS011;50828;53.756;21.140;2023-03-02T21:14:03;15.00;;;7.10;;
64459;SDS011;50828;53.756;21.140;2023-03-02T21:19:13;12.90;;;6.00;;
64459;SDS011;50828;53.756;21.140;2023-03-02T21:24:22;17.60;;;7.50;;
64459;SDS011;50828;53.756;21.140;2023-03-02T21:29:31;15.30;;;7.40;;
64459;SDS011;50828;53.756;21.140;2023-03-02T21:34:39;15.50;;;7.40;;
64459;SDS011;50828;53.756;21.140;2023-03-02T21:39:48;15.50;;;7.50;;
64459;SDS011;50828;53.756;21.140;2023-03-02T21:44:55;15.70;;;7.90;;
64459;SDS011;50828;53.756;21.140;2023-03-02T21:50:04;18.60;;;8.60;;
64459;SDS011;50828;53.756;21.140;2023-03-02T21:55:14;22.20;;;9.70;;
64459;SDS011;50828;53.756;21.140;2023-03-02T22:00:23;20.00;;;9.10;;
64459;SDS011;50828;53.756;21.140;2023-03-02T22:05:32;19.50;;;7.90;;
64459;SDS011;50828;53.756;21.140;2023-03-02T22:10:42;16.00;;;6.70;;
64459;SDS011;50828;53.756;21.140;2023-03-02T22:15:54;12.40;;;5.40;;
64459;SDS011;50828;53.756;21.140;2023-03-02T22:21:19;14.30;;;6.60;;
64459;SDS011;50828;53.756;21.140;2023-03-02T22:26:33;12.30;;;5.50;;
64459;SDS011;50828;53.756;21.140;2023-03-02T22:36:55;6.70;;;3.50;;
64459;SDS011;50828;53.756;21.140;2023-03-02T22:42:11;10.10;;;4.90;;
64459;SDS011;50828;53.756;21.140;2023-03-02T22:52:31;10.80;;;5.10;;
64459;SDS011;50828;53.756;21.140;2023-03-02T22:57:46;11.10;;;5.50;;
64459;SDS011;50828;53.756;21.140;2023-03-02T23:02:54;12.00;;;5.60;;
64459;SDS011;50828;53.756;21.140;2023-03-02T23:08:13;13.60;;;6.20;;
64459;SDS011;50828;53.756;21.140;2023-03-02T23:13:35;13.20;;;7.20;;
64459;SDS011;50828;53.756;21.140;2023-03-02T23:18:45;18.20;;;8.30;;
64459;SDS011;50828;53.756;21.140;2023-03-02T23:23:54;16.90;;;8.00;;
64459;SDS011;50828;53.756;21.140;2023-03-02T23:29:01;20.30;;;10.00;;
64459;SDS011;50828;53.756;21.140;2023-03-02T23:34:11;20.40;;;10.50;;
64459;SDS011;50828;53.756;21.140;2023-03-02T23:39:20;21.60;;;11.10;;
64459;SDS011;50828;53.756;21.140;2023-03-02T23:44:29;29.10;;;12.10;;
64459;SDS011;50828;53.756;21.140;2023-03-02T23:49:38;23.50;;;11.50;;
64459;SDS011;50828;53.756;21.140;2023-03-02T23:54:45;27.60;;;11.50;;
64459;SDS011;50828;53.756;21.140;2023-03-02T23:59:54;19.60;;;10.40;;
